createdAt,value
2018-12-25T00:00:42.263Z,4.45
2018-12-25T00:01:52.093Z,4.55
2018-12-25T00:02:59.121Z,4.42
2018-12-25T00:04:08.189Z,4.87
2018-12-25T00:05:17.979Z,4.70
2018-12-25T00:06:26.883Z,4.35
2018-12-25T00:07:36.995Z,4.15
2018-12-25T00:08:44.178Z,4.08
2018-12-25T00:09:54.658Z,3.90
2018-12-25T00:11:03.103Z,4.55
2018-12-25T00:12:11.244Z,3.98
2018-12-25T00:13:19.297Z,4.37
2018-12-25T00:14:32.224Z,3.70
2018-12-25T00:15:42.687Z,4.12
2018-12-25T00:16:51.382Z,3.90
2018-12-25T00:18:00.951Z,3.67
2018-12-25T00:19:08.989Z,4.20
2018-12-25T00:20:15.581Z,4.33
2018-12-25T00:21:22.177Z,4.28
2018-12-25T00:22:29.188Z,3.90
2018-12-25T00:23:36.793Z,3.90
2018-12-25T00:24:45.510Z,4.70
2018-12-25T00:25:51.994Z,4.87
2018-12-25T00:26:58.634Z,4.30
2018-12-25T00:28:07.130Z,5.12
2018-12-25T00:29:13.824Z,4.55
2018-12-25T00:30:20.451Z,4.62
2018-12-25T00:31:28.138Z,4.22
2018-12-25T00:32:37.899Z,4.60
2018-12-25T00:33:47.529Z,4.30
2018-12-25T00:34:56.613Z,4.60
2018-12-25T00:36:03.394Z,4.50
2018-12-25T00:37:12.592Z,4.50
2018-12-25T00:38:24.174Z,4.17
2018-12-25T00:39:32.482Z,4.15
2018-12-25T00:40:41.076Z,4.47
2018-12-25T00:41:49.057Z,4.12
2018-12-25T00:42:56.434Z,4.70
2018-12-25T00:44:03.268Z,4.85
2018-12-25T00:45:09.766Z,4.40
2018-12-25T00:46:16.253Z,5.08
2018-12-25T00:47:22.924Z,4.60
2018-12-25T00:48:32.397Z,4.47
2018-12-25T00:49:45.321Z,4.45
2018-12-25T00:50:53.588Z,4.58
2018-12-25T00:52:00.789Z,4.30
2018-12-25T00:53:07.329Z,4.83
2018-12-25T00:54:15.419Z,4.42
2018-12-25T00:55:25.988Z,4.50
2018-12-25T00:56:36.305Z,4.97
2018-12-25T00:57:42.859Z,4.53
2018-12-25T00:58:49.414Z,4.95
2018-12-25T00:59:56.196Z,4.42
2018-12-25T01:01:02.991Z,4.37
2018-12-25T01:02:09.475Z,4.20
2018-12-25T01:03:18.950Z,4.60
2018-12-25T01:04:27.858Z,4.67
2018-12-25T01:05:34.454Z,4.55
2018-12-25T01:06:41.211Z,4.17
2018-12-25T01:07:47.736Z,4.40
2018-12-25T01:08:55.658Z,5.05
2018-12-25T01:10:03.111Z,4.70
2018-12-25T01:11:09.581Z,4.30
2018-12-25T01:12:15.913Z,3.98
2018-12-25T01:13:22.276Z,3.90
2018-12-25T01:14:31.445Z,4.22
2018-12-25T01:15:39.171Z,4.17
2018-12-25T01:16:46.597Z,4.35
2018-12-25T01:17:52.968Z,3.90
2018-12-25T01:18:59.620Z,3.98
2018-12-25T01:20:06.300Z,3.45
2018-12-25T01:21:13.017Z,3.98
2018-12-25T01:22:19.674Z,3.72
2018-12-25T01:23:29.144Z,3.72
2018-12-25T01:24:37.105Z,3.52
2018-12-25T01:25:45.262Z,3.83
2018-12-25T01:26:53.460Z,3.95
2018-12-25T01:28:01.265Z,3.58
2018-12-25T01:29:10.301Z,3.85
2018-12-25T01:30:16.751Z,3.80
2018-12-25T01:31:27.306Z,3.25
2018-12-25T01:32:38.237Z,2.85
2018-12-25T01:33:43.936Z,3.50
2018-12-25T01:34:50.462Z,3.55
2018-12-25T01:35:59.260Z,3.42
2018-12-25T01:37:07.187Z,3.30
2018-12-25T01:38:15.523Z,3.60
2018-12-25T01:39:24.809Z,3.33
2018-12-25T01:40:31.230Z,2.85
2018-12-25T01:41:37.874Z,3.60
2018-12-25T01:42:44.470Z,3.80
2018-12-25T01:43:50.946Z,3.60
2018-12-25T01:44:58.785Z,3.65
2018-12-25T01:46:05.275Z,3.52
2018-12-25T01:47:11.728Z,3.50
2018-12-25T01:48:18.262Z,3.25
2018-12-25T01:49:31.733Z,3.50
2018-12-25T01:50:33.093Z,3.45
2018-12-25T01:51:39.571Z,3.60
2018-12-25T01:52:46.200Z,3.17
2018-12-25T01:53:52.688Z,3.60
2018-12-25T01:55:02.539Z,3.67
2018-12-25T01:56:10.152Z,2.98
2018-12-25T01:57:16.628Z,4.00
2018-12-25T01:58:23.185Z,3.85
2018-12-25T01:59:30.738Z,4.12
2018-12-25T02:00:37.446Z,3.80
2018-12-25T02:01:43.918Z,4.15
2018-12-25T02:02:51.105Z,4.28
2018-12-25T02:03:57.646Z,4.20
2018-12-25T02:05:06.325Z,3.85
2018-12-25T02:06:12.935Z,3.77
2018-12-25T02:07:21.698Z,3.95
2018-12-25T02:08:30.497Z,4.40
2018-12-25T02:09:37.130Z,4.22
2018-12-25T02:10:44.070Z,4.33
2018-12-25T02:11:50.496Z,4.40
2018-12-25T02:12:57.108Z,4.60
2018-12-25T02:14:06.159Z,4.25
2018-12-25T02:15:15.421Z,4.40
2018-12-25T02:16:24.938Z,4.30
2018-12-25T02:17:31.547Z,4.20
2018-12-25T02:18:38.084Z,4.15
2018-12-25T02:19:44.569Z,4.37
2018-12-25T02:20:51.061Z,4.33
2018-12-25T02:21:57.435Z,4.17
2018-12-25T02:23:03.845Z,4.20
2018-12-25T02:24:10.428Z,4.78
2018-12-25T02:25:23.940Z,4.30
2018-12-25T02:26:30.435Z,4.78
2018-12-25T02:27:36.999Z,4.40
2018-12-25T02:28:45.859Z,4.75
2018-12-25T02:29:53.465Z,4.90
2018-12-25T02:31:02.448Z,4.70
2018-12-25T02:32:11.455Z,4.70
2018-12-25T02:33:18.034Z,4.55
2018-12-25T02:34:24.705Z,4.20
2018-12-25T02:35:32.749Z,4.28
2018-12-25T02:36:39.784Z,4.08
2018-12-25T02:37:46.262Z,4.45
2018-12-25T02:38:52.772Z,4.50
2018-12-25T02:40:01.163Z,4.55
2018-12-25T02:41:09.216Z,5.10
2018-12-25T02:42:16.721Z,4.60
2018-12-25T02:43:24.228Z,4.47
2018-12-25T02:44:30.960Z,4.67
2018-12-25T02:45:37.663Z,5.10
2018-12-25T02:46:44.294Z,5.45
2018-12-25T02:47:50.929Z,5.08
2018-12-25T02:48:57.454Z,4.90
2018-12-25T02:50:06.437Z,4.97
2018-12-25T02:51:12.923Z,4.55
2018-12-25T02:52:19.380Z,5.20
2018-12-25T02:53:25.857Z,5.03
2018-12-25T02:54:32.445Z,5.37
2018-12-25T02:55:38.857Z,5.67
2018-12-25T02:56:45.318Z,5.45
2018-12-25T02:57:52.039Z,5.80
2018-12-25T02:58:58.371Z,5.62
2018-12-25T03:00:05.097Z,5.05
2018-12-25T03:01:11.557Z,6.00
2018-12-25T03:02:18.483Z,5.30
2018-12-25T03:03:24.998Z,5.92
2018-12-25T03:04:31.428Z,5.92
2018-12-25T03:05:37.870Z,6.37
2018-12-25T03:06:44.583Z,6.35
2018-12-25T03:07:51.113Z,6.33
2018-12-25T03:08:57.642Z,6.25
2018-12-25T03:10:04.579Z,6.12
2018-12-25T03:11:11.012Z,6.60
2018-12-25T03:12:17.631Z,7.37
2018-12-25T03:13:24.076Z,6.55
2018-12-25T03:14:30.670Z,7.75
2018-12-25T03:15:37.329Z,7.03
2018-12-25T03:16:44.000Z,7.25
2018-12-25T03:17:50.708Z,7.55
2018-12-25T03:18:57.542Z,7.17
2018-12-25T03:20:04.194Z,7.60
2018-12-25T03:21:11.659Z,8.18
2018-12-25T03:22:18.970Z,8.23
2018-12-25T03:23:28.008Z,7.08
2018-12-25T03:24:39.386Z,8.25
2018-12-25T03:25:48.525Z,8.18
2018-12-25T03:26:57.977Z,8.95
2018-12-25T03:28:07.217Z,8.70
2018-12-25T03:29:14.070Z,8.30
2018-12-25T03:30:20.536Z,9.33
2018-12-25T03:31:28.488Z,7.95
2018-12-25T03:32:36.738Z,8.15
2018-12-25T03:33:43.244Z,8.30
2018-12-25T03:34:49.876Z,8.68
2018-12-25T03:35:56.455Z,7.80
2018-12-25T03:37:02.967Z,8.45
2018-12-25T03:38:11.604Z,8.93
2018-12-25T03:39:18.121Z,8.40
2018-12-25T03:40:27.075Z,8.48
2018-12-25T03:41:35.449Z,8.98
2018-12-25T03:42:45.121Z,8.70
2018-12-25T03:43:51.576Z,8.98
2018-12-25T03:44:59.720Z,8.33
2018-12-25T03:46:10.985Z,8.45
2018-12-25T03:47:20.728Z,8.65
2018-12-25T03:48:30.878Z,8.53
2018-12-25T03:49:39.377Z,8.78
2018-12-25T03:50:48.110Z,8.03
2018-12-25T03:51:56.646Z,8.40
2018-12-25T03:53:04.753Z,8.88
2018-12-25T03:54:13.105Z,8.55
2018-12-25T03:55:21.830Z,8.98
2018-12-25T03:56:32.247Z,8.68
2018-12-25T03:57:41.270Z,9.60
2018-12-25T03:58:49.891Z,8.45
2018-12-25T03:59:59.506Z,8.73
2018-12-25T04:01:13.341Z,7.47
2018-12-25T04:02:22.046Z,8.70
2018-12-25T04:03:31.748Z,8.85
2018-12-25T04:04:41.075Z,8.33
2018-12-25T04:05:48.435Z,7.92
2018-12-25T04:06:55.068Z,8.18
2018-12-25T04:08:02.829Z,8.73
2018-12-25T04:09:10.222Z,8.35
2018-12-25T04:10:16.664Z,7.90
2018-12-25T04:11:24.414Z,8.10
2018-12-25T04:12:30.893Z,8.45
2018-12-25T04:13:37.316Z,8.25
2018-12-25T04:14:44.101Z,9.43
2018-12-25T04:15:50.536Z,8.78
2018-12-25T04:16:59.264Z,8.33
2018-12-25T04:18:06.793Z,8.75
2018-12-25T04:19:13.581Z,9.25
2018-12-25T04:20:20.401Z,9.05
2018-12-25T04:21:26.786Z,9.90
2018-12-25T04:22:33.216Z,8.50
2018-12-25T04:23:39.678Z,9.18
2018-12-25T04:24:46.294Z,10.25
2018-12-25T04:25:54.130Z,9.00
2018-12-25T04:27:00.707Z,9.40
2018-12-25T04:28:07.185Z,9.03
2018-12-25T04:29:13.654Z,9.10
2018-12-25T04:30:20.162Z,8.88
2018-12-25T04:31:26.756Z,9.33
2018-12-25T04:32:33.242Z,9.35
2018-12-25T04:33:40.740Z,9.00
2018-12-25T04:34:51.132Z,8.70
2018-12-25T04:35:59.752Z,8.98
2018-12-25T04:37:06.282Z,8.15
2018-12-25T04:38:13.891Z,7.97
2018-12-25T04:39:20.215Z,8.15
2018-12-25T04:40:26.619Z,8.55
2018-12-25T04:41:33.117Z,8.60
2018-12-25T04:42:39.661Z,7.67
2018-12-25T04:43:46.330Z,8.40
2018-12-25T04:44:52.818Z,8.18
2018-12-25T04:46:01.617Z,9.43
2018-12-25T04:47:10.996Z,9.08
2018-12-25T04:48:22.144Z,9.50
2018-12-25T04:49:28.517Z,8.23
2018-12-25T04:50:35.112Z,9.23
2018-12-25T04:51:47.477Z,7.95
2018-12-25T04:52:53.977Z,9.15
2018-12-25T04:54:00.645Z,8.78
2018-12-25T04:55:07.467Z,8.63
2018-12-25T04:56:14.036Z,8.18
2018-12-25T04:57:20.602Z,9.00
2018-12-25T04:58:27.216Z,9.68
2018-12-25T04:59:33.764Z,8.25
2018-12-25T05:00:42.970Z,8.63
2018-12-25T05:01:49.918Z,8.53
2018-12-25T05:02:56.464Z,9.20
2018-12-25T05:04:03.022Z,9.13
2018-12-25T05:05:09.993Z,9.18
2018-12-25T05:06:16.584Z,9.13
2018-12-25T05:07:23.228Z,9.60
2018-12-25T05:08:29.803Z,9.50
2018-12-25T05:09:37.753Z,9.48
2018-12-25T05:10:45.356Z,9.08
2018-12-25T05:11:51.807Z,10.18
2018-12-25T05:12:59.051Z,11.57
2018-12-25T05:14:05.479Z,10.55
2018-12-25T05:15:11.918Z,10.25
2018-12-25T05:16:18.343Z,10.43
2018-12-25T05:17:26.540Z,11.20
2018-12-25T05:18:32.955Z,11.10
2018-12-25T05:19:40.558Z,10.38
2018-12-25T05:20:47.040Z,10.72
2018-12-25T05:21:53.947Z,10.82
2018-12-25T05:23:00.386Z,12.00
2018-12-25T05:24:07.017Z,10.98
2018-12-25T05:25:13.550Z,11.43
2018-12-25T05:26:20.062Z,10.88
2018-12-25T05:27:28.936Z,11.75
2018-12-25T05:28:35.392Z,12.35
2018-12-25T05:29:41.838Z,12.43
2018-12-25T05:30:49.845Z,11.80
2018-12-25T05:31:57.003Z,11.65
2018-12-25T05:33:03.601Z,12.03
2018-12-25T05:34:10.150Z,11.83
2018-12-25T05:35:16.683Z,12.40
2018-12-25T05:36:24.228Z,12.55
2018-12-25T05:37:31.780Z,12.73
2018-12-25T05:38:41.207Z,12.13
2018-12-25T05:39:49.097Z,12.43
2018-12-25T05:40:56.572Z,12.80
2018-12-25T05:42:03.002Z,12.40
2018-12-25T05:43:09.447Z,12.58
2018-12-25T05:44:15.888Z,12.73
2018-12-25T05:45:25.187Z,12.75
2018-12-25T05:46:31.675Z,12.33
2018-12-25T05:47:40.036Z,12.73
2018-12-25T05:48:48.981Z,13.68
2018-12-25T05:49:57.535Z,12.28
2018-12-25T05:51:04.001Z,12.28
2018-12-25T05:52:10.839Z,13.08
2018-12-25T05:53:19.140Z,12.53
2018-12-25T05:54:25.713Z,12.33
2018-12-25T05:55:32.513Z,13.38
2018-12-25T05:56:39.269Z,14.40
2018-12-25T05:57:45.868Z,14.38
2018-12-25T05:58:52.412Z,13.60
2018-12-25T05:59:58.995Z,12.70
2018-12-25T06:01:07.900Z,13.50
2018-12-25T06:02:14.385Z,12.93
2018-12-25T06:03:20.945Z,14.58
2018-12-25T06:04:27.367Z,13.53
2018-12-25T06:05:33.849Z,13.00
2018-12-25T06:06:40.699Z,12.90
2018-12-25T06:07:47.437Z,13.05
2018-12-25T06:08:58.202Z,12.28
2018-12-25T06:10:06.050Z,12.82
2018-12-25T06:11:12.615Z,14.03
2018-12-25T06:12:19.135Z,13.78
2018-12-25T06:13:25.845Z,12.47
2018-12-25T06:14:32.355Z,13.50
2018-12-25T06:15:39.345Z,13.10
2018-12-25T06:16:45.805Z,11.50
2018-12-25T06:17:52.794Z,12.40
2018-12-25T06:19:01.213Z,12.73
2018-12-25T06:20:10.539Z,12.33
2018-12-25T06:21:19.365Z,12.75
2018-12-25T06:22:27.415Z,11.95
2018-12-25T06:23:33.988Z,12.47
2018-12-25T06:24:40.502Z,11.70
2018-12-25T06:25:46.939Z,13.22
2018-12-25T06:26:53.419Z,11.93
2018-12-25T06:28:00.433Z,12.25
2018-12-25T06:29:07.004Z,12.28
2018-12-25T06:30:13.781Z,12.53
2018-12-25T06:31:21.675Z,12.60
2018-12-25T06:32:28.221Z,12.15
2018-12-25T06:33:34.894Z,11.75
2018-12-25T06:34:44.959Z,12.78
2018-12-25T06:35:51.392Z,13.53
2018-12-25T06:36:57.984Z,11.45
2018-12-25T06:38:04.624Z,11.68
2018-12-25T06:39:11.156Z,12.05
2018-12-25T06:40:17.733Z,12.55
2018-12-25T06:41:26.424Z,12.05
2018-12-25T06:42:32.970Z,11.68
2018-12-25T06:43:42.522Z,12.75
2018-12-25T06:44:49.131Z,12.05
2018-12-25T06:45:57.928Z,12.28
2018-12-25T06:47:04.301Z,11.83
2018-12-25T06:48:10.690Z,13.25
2018-12-25T06:49:18.592Z,12.88
2018-12-25T06:50:25.230Z,12.07
2018-12-25T06:51:31.821Z,12.58
2018-12-25T06:52:38.108Z,13.20
2018-12-25T06:53:47.585Z,13.95
2018-12-25T06:54:54.150Z,13.68
2018-12-25T06:56:02.130Z,13.43
2018-12-25T06:57:12.053Z,14.23
2018-12-25T06:58:20.846Z,13.35
2018-12-25T06:59:27.682Z,13.98
2018-12-25T07:00:34.332Z,13.40
2018-12-25T07:01:40.866Z,13.08
2018-12-25T07:02:47.311Z,13.15
2018-12-25T07:03:53.809Z,13.45
2018-12-25T07:05:04.086Z,13.70
2018-12-25T07:06:10.533Z,14.80
2018-12-25T07:07:19.009Z,14.03
2018-12-25T07:08:25.643Z,14.05
2018-12-25T07:09:32.126Z,14.38
2018-12-25T07:10:38.670Z,13.50
2018-12-25T07:11:47.848Z,14.10
2018-12-25T07:12:57.979Z,13.53
2018-12-25T07:14:04.773Z,13.43
2018-12-25T07:15:11.438Z,15.63
2018-12-25T07:16:17.969Z,15.30
2018-12-25T07:17:25.842Z,14.60
2018-12-25T07:18:32.516Z,14.55
2018-12-25T07:19:40.410Z,13.98
2018-12-25T07:20:47.081Z,15.38
2018-12-25T07:21:53.608Z,15.03
2018-12-25T07:23:04.474Z,14.45
2018-12-25T07:24:10.794Z,13.53
2018-12-25T07:25:17.439Z,13.43
2018-12-25T07:26:23.848Z,13.20
2018-12-25T07:27:30.520Z,14.13
2018-12-25T07:28:37.077Z,13.35
2018-12-25T07:29:46.317Z,13.83
2018-12-25T07:30:52.798Z,14.28
2018-12-25T07:31:59.330Z,14.18
2018-12-25T07:33:05.864Z,14.28
2018-12-25T07:34:12.562Z,13.48
2018-12-25T07:35:19.521Z,13.40
2018-12-25T07:36:28.280Z,14.85
2018-12-25T07:37:35.849Z,14.07
2018-12-25T07:38:42.360Z,14.23
2018-12-25T07:39:48.753Z,15.13
2018-12-25T07:40:55.227Z,15.55
2018-12-25T07:42:01.998Z,15.65
2018-12-25T07:43:09.952Z,14.43
2018-12-25T07:44:16.323Z,15.30
2018-12-25T07:45:22.941Z,14.53
2018-12-25T07:46:30.948Z,15.50
2018-12-25T07:47:40.980Z,14.85
2018-12-25T07:48:47.664Z,14.73
2018-12-25T07:49:54.227Z,14.40
2018-12-25T07:51:01.913Z,15.50
2018-12-25T07:52:08.353Z,14.58
2018-12-25T07:53:14.905Z,15.25
2018-12-25T07:54:21.282Z,14.35
2018-12-25T07:55:27.797Z,15.83
2018-12-25T07:56:34.949Z,16.30
2018-12-25T07:57:43.752Z,15.13
2018-12-25T07:58:54.605Z,15.25
2018-12-25T08:00:01.179Z,15.45
2018-12-25T08:01:07.698Z,14.75
2018-12-25T08:02:14.336Z,15.32
2018-12-25T08:03:21.195Z,15.45
2018-12-25T08:04:27.883Z,15.58
2018-12-25T08:05:34.623Z,14.18
2018-12-25T08:06:42.279Z,15.05
2018-12-25T08:07:49.015Z,14.00
2018-12-25T08:08:55.607Z,14.63
2018-12-25T08:10:02.319Z,14.03
2018-12-25T08:11:08.718Z,15.65
2018-12-25T08:12:18.149Z,12.73
2018-12-25T08:13:24.669Z,14.05
2018-12-25T08:14:31.166Z,14.58
2018-12-25T08:15:37.752Z,12.93
2018-12-25T08:16:44.431Z,13.68
2018-12-25T08:17:53.715Z,15.05
2018-12-25T08:19:00.185Z,13.65
2018-12-25T08:20:06.761Z,13.45
2018-12-25T08:21:14.437Z,14.65
2018-12-25T08:22:20.901Z,14.53
2018-12-25T08:23:27.332Z,15.23
2018-12-25T08:24:33.925Z,15.10
2018-12-25T08:25:40.486Z,15.60
2018-12-25T08:26:49.414Z,15.08
2018-12-25T08:27:58.386Z,15.32
2018-12-25T08:29:04.997Z,15.05
2018-12-25T08:30:12.608Z,17.23
2018-12-25T08:31:20.524Z,15.00
2018-12-25T08:32:27.510Z,15.05
2018-12-25T08:33:34.151Z,15.83
2018-12-25T08:34:40.847Z,15.38
2018-12-25T08:35:47.583Z,16.25
2018-12-25T08:36:54.135Z,17.42
2018-12-25T08:38:00.707Z,15.43
2018-12-25T08:39:08.742Z,16.02
2018-12-25T08:40:15.363Z,15.95
2018-12-25T08:41:22.027Z,15.53
2018-12-25T08:42:29.355Z,16.67
2018-12-25T08:43:35.974Z,15.25
2018-12-25T08:44:42.533Z,15.58
2018-12-25T08:45:49.015Z,15.70
2018-12-25T08:46:55.667Z,15.90
2018-12-25T08:48:02.407Z,15.93
2018-12-25T08:49:10.695Z,15.80
2018-12-25T08:50:17.148Z,15.68
2018-12-25T08:51:23.668Z,16.90
2018-12-25T08:52:30.389Z,16.73
2018-12-25T08:53:36.917Z,15.30
2018-12-25T08:54:43.556Z,15.32
2018-12-25T08:55:50.126Z,17.32
2018-12-25T08:56:56.733Z,16.90
2018-12-25T08:58:03.273Z,16.07
2018-12-25T08:59:09.798Z,16.97
2018-12-25T09:00:16.429Z,16.87
2018-12-25T09:01:22.835Z,17.70
2018-12-25T09:02:29.567Z,17.70
2018-12-25T09:03:36.536Z,17.05
2018-12-25T09:04:43.252Z,16.32
2018-12-25T09:05:49.826Z,17.92
2018-12-25T09:06:56.422Z,15.00
2018-12-25T09:08:03.151Z,14.85
2018-12-25T09:09:10.797Z,15.68
2018-12-25T09:10:17.375Z,15.93
2018-12-25T09:11:23.979Z,15.68
2018-12-25T09:12:30.633Z,15.68
2018-12-25T09:13:37.388Z,14.43
2018-12-25T09:14:43.935Z,14.25
2018-12-25T09:15:50.589Z,15.75
2018-12-25T09:16:57.213Z,14.90
2018-12-25T09:18:03.900Z,15.00
2018-12-25T09:19:11.717Z,16.37
2018-12-25T09:20:18.272Z,15.38
2018-12-25T09:21:24.855Z,15.25
2018-12-25T09:22:31.525Z,15.08
2018-12-25T09:23:38.111Z,15.80
2018-12-25T09:24:47.398Z,15.65
2018-12-25T09:25:56.801Z,16.32
2018-12-25T09:27:03.369Z,15.00
2018-12-25T09:28:09.856Z,16.20
2018-12-25T09:29:16.503Z,17.70
2018-12-25T09:30:26.396Z,17.62
2018-12-25T09:31:32.938Z,17.95
2018-12-25T09:32:39.984Z,16.77
2018-12-25T09:33:47.356Z,15.58
2018-12-25T09:34:53.869Z,16.90
2018-12-25T09:36:04.438Z,16.27
2018-12-25T09:37:10.997Z,17.02
2018-12-25T09:38:17.431Z,15.25
2018-12-25T09:39:24.181Z,15.78
2018-12-25T09:40:30.674Z,15.30
2018-12-25T09:41:38.387Z,14.73
2018-12-25T09:42:47.725Z,16.10
2018-12-25T09:43:57.187Z,16.07
2018-12-25T09:45:03.706Z,16.55
2018-12-25T09:46:12.159Z,16.10
2018-12-25T09:47:18.769Z,15.78
2018-12-25T09:48:27.542Z,15.32
2018-12-25T09:49:34.060Z,15.63
2018-12-25T09:50:42.384Z,15.80
2018-12-25T09:51:54.605Z,14.55
2018-12-25T09:52:59.917Z,16.02
2018-12-25T09:54:06.561Z,15.40
2018-12-25T09:55:13.180Z,14.90
2018-12-25T09:56:19.799Z,13.65
2018-12-25T09:57:27.918Z,15.45
2018-12-25T09:58:34.700Z,16.35
2018-12-25T09:59:41.654Z,15.43
2018-12-25T10:00:48.302Z,15.28
2018-12-25T10:01:54.966Z,16.42
2018-12-25T10:03:01.695Z,15.93
2018-12-25T10:04:08.712Z,15.25
2018-12-25T10:05:16.493Z,15.50
2018-12-25T10:06:25.321Z,14.98
2018-12-25T10:07:31.986Z,16.40
2018-12-25T10:08:38.643Z,16.55
2018-12-25T10:09:45.382Z,15.10
2018-12-25T10:10:51.885Z,15.45
2018-12-25T10:12:01.062Z,14.65
2018-12-25T10:13:07.666Z,15.90
2018-12-25T10:14:14.064Z,15.25
2018-12-25T10:15:20.475Z,15.25
2018-12-25T10:16:27.066Z,13.88
2018-12-25T10:17:34.325Z,14.47
2018-12-25T10:18:40.898Z,15.88
2018-12-25T10:19:47.784Z,15.25
2018-12-25T10:20:54.559Z,14.30
2018-12-25T10:22:03.167Z,15.30
2018-12-25T10:23:09.266Z,15.32
2018-12-25T10:24:15.719Z,13.83
2018-12-25T10:25:22.216Z,13.22
2018-12-25T10:26:28.740Z,14.78
2018-12-25T10:27:35.224Z,13.70
2018-12-25T10:28:42.957Z,13.58
2018-12-25T10:29:49.497Z,14.38
2018-12-25T10:30:56.276Z,14.10
2018-12-25T10:32:02.873Z,14.23
2018-12-25T10:33:11.828Z,13.50
2018-12-25T10:34:20.433Z,14.30
2018-12-25T10:35:28.401Z,14.78
2018-12-25T10:36:34.869Z,14.83
2018-12-25T10:37:41.326Z,14.47
2018-12-25T10:38:47.820Z,15.00
2018-12-25T10:40:04.346Z,14.85
2018-12-25T10:41:15.409Z,15.10
2018-12-25T10:42:21.805Z,14.25
2018-12-25T10:43:28.373Z,15.65
2018-12-25T10:44:36.973Z,15.13
2018-12-25T10:45:43.745Z,15.78
2018-12-25T10:46:50.363Z,16.25
2018-12-25T10:47:57.101Z,16.35
2018-12-25T10:49:03.947Z,15.40
2018-12-25T10:50:12.526Z,15.95
2018-12-25T10:51:19.345Z,16.48
2018-12-25T10:52:26.080Z,15.40
2018-12-25T10:53:32.878Z,16.48
2018-12-25T10:54:41.715Z,17.00
2018-12-25T10:55:48.909Z,16.15
2018-12-25T10:56:57.252Z,16.05
2018-12-25T10:58:04.629Z,16.23
2018-12-25T10:59:11.588Z,16.73
2018-12-25T11:00:18.825Z,16.02
2018-12-25T11:01:29.440Z,15.78
2018-12-25T11:02:36.538Z,17.32
2018-12-25T11:03:44.164Z,16.97
2018-12-25T11:04:51.191Z,17.67
2018-12-25T11:05:59.046Z,17.05
2018-12-25T11:07:07.492Z,17.60
2018-12-25T11:08:15.092Z,17.37
2018-12-25T11:09:24.487Z,17.95
2018-12-25T11:10:32.615Z,18.45
2018-12-25T11:11:42.707Z,16.70
2018-12-25T11:12:53.040Z,17.75
2018-12-25T11:14:01.672Z,17.95
2018-12-25T11:15:08.841Z,17.00
2018-12-25T11:16:17.059Z,17.77
2018-12-25T11:17:23.663Z,16.70
2018-12-25T11:18:30.247Z,17.42
2018-12-25T11:19:36.945Z,17.42
2018-12-25T11:20:43.687Z,18.62
2018-12-25T11:21:52.863Z,15.75
2018-12-25T11:23:00.407Z,17.62
2018-12-25T11:24:08.139Z,18.02
2018-12-25T11:25:14.758Z,16.35
2018-12-25T11:26:21.410Z,18.07
2018-12-25T11:27:27.978Z,17.70
2018-12-25T11:28:34.748Z,17.37
2018-12-25T11:29:43.129Z,17.25
2018-12-25T11:30:50.835Z,18.52
2018-12-25T11:31:57.435Z,17.02
2018-12-25T11:33:05.429Z,17.23
2018-12-25T11:34:11.903Z,17.82
2018-12-25T11:35:19.940Z,16.87
2018-12-25T11:36:30.103Z,17.98
2018-12-25T11:37:38.546Z,17.48
2018-12-25T11:38:45.520Z,17.80
2018-12-25T11:39:52.141Z,18.32
2018-12-25T11:40:58.681Z,18.30
2018-12-25T11:42:05.566Z,19.20
2018-12-25T11:43:13.856Z,18.00
2018-12-25T11:44:21.895Z,18.75
2018-12-25T11:45:28.426Z,16.82
2018-12-25T11:46:35.074Z,17.65
2018-12-25T11:47:41.745Z,17.90
2018-12-25T11:48:51.542Z,17.10
2018-12-25T11:49:58.110Z,16.42
2018-12-25T11:51:04.609Z,16.70
2018-12-25T11:52:11.089Z,16.10
2018-12-25T11:53:17.786Z,15.15
2018-12-25T11:54:24.259Z,15.43
2018-12-25T11:55:30.644Z,16.73
2018-12-25T11:56:37.065Z,16.55
2018-12-25T11:57:47.542Z,15.75
2018-12-25T11:58:55.291Z,15.78
2018-12-25T12:00:04.876Z,14.58
2018-12-25T12:01:14.338Z,14.75
2018-12-25T12:02:23.328Z,14.90
2018-12-25T12:03:33.025Z,14.93
2018-12-25T12:04:42.460Z,16.02
2018-12-25T12:05:52.068Z,15.85
2018-12-25T12:07:00.845Z,15.65
2018-12-25T12:08:11.445Z,15.35
2018-12-25T12:09:21.387Z,15.03
2018-12-25T12:10:33.202Z,14.65
2018-12-25T12:11:43.190Z,15.83
2018-12-25T12:12:52.323Z,16.23
2018-12-25T12:14:02.002Z,16.23
2018-12-25T12:15:09.208Z,16.55
2018-12-25T12:16:15.667Z,15.72
2018-12-25T12:17:22.321Z,15.72
2018-12-25T12:18:30.112Z,15.28
2018-12-25T12:19:36.825Z,15.32
2018-12-25T12:20:43.506Z,15.58
2018-12-25T12:21:50.127Z,15.88
2018-12-25T12:22:56.598Z,17.40
2018-12-25T12:24:03.258Z,17.82
2018-12-25T12:25:11.859Z,16.93
2018-12-25T12:26:18.409Z,17.20
2018-12-25T12:27:25.070Z,16.93
2018-12-25T12:28:31.635Z,16.37
2018-12-25T12:29:39.977Z,17.07
2018-12-25T12:30:46.598Z,15.83
2018-12-25T12:31:53.060Z,16.97
2018-12-25T12:32:59.577Z,16.55
2018-12-25T12:34:06.409Z,16.95
2018-12-25T12:35:15.466Z,16.55
2018-12-25T12:36:21.911Z,16.25
2018-12-25T12:37:28.364Z,15.93
2018-12-25T12:38:34.847Z,16.45
2018-12-25T12:39:41.347Z,16.12
2018-12-25T12:40:49.306Z,17.60
2018-12-25T12:41:55.801Z,16.62
2018-12-25T12:43:02.493Z,16.52
2018-12-25T12:44:09.306Z,15.45
2018-12-25T12:45:15.866Z,14.58
2018-12-25T12:46:22.375Z,13.08
2018-12-25T12:47:31.979Z,13.78
2018-12-25T12:48:42.535Z,14.60
2018-12-25T12:49:48.665Z,15.05
2018-12-25T12:51:00.589Z,16.10
2018-12-25T12:52:07.085Z,14.63
2018-12-25T12:53:13.812Z,14.50
2018-12-25T12:54:20.354Z,14.18
2018-12-25T12:55:26.957Z,15.03
2018-12-25T12:56:36.151Z,15.25
2018-12-25T12:57:44.027Z,14.60
2018-12-25T12:58:51.566Z,13.50
2018-12-25T12:59:58.222Z,12.70
2018-12-25T13:01:04.766Z,13.48
2018-12-25T13:02:12.520Z,14.05
2018-12-25T13:03:20.711Z,12.68
2018-12-25T13:04:27.609Z,13.58
2018-12-25T13:05:34.120Z,13.03
2018-12-25T13:06:40.633Z,13.68
2018-12-25T13:07:47.358Z,12.30
2018-12-25T13:08:55.382Z,11.35
2018-12-25T13:10:03.244Z,11.15
2018-12-25T13:11:09.792Z,10.90
2018-12-25T13:12:16.644Z,12.03
2018-12-25T13:13:23.633Z,12.07
2018-12-25T13:14:30.368Z,11.65
2018-12-25T13:15:36.846Z,11.20
2018-12-25T13:16:43.350Z,11.93
2018-12-25T13:17:50.022Z,10.05
2018-12-25T13:18:59.827Z,10.43
2018-12-25T13:20:06.900Z,10.32
2018-12-25T13:21:15.364Z,10.48
2018-12-25T13:22:22.160Z,10.90
2018-12-25T13:23:28.806Z,9.68
2018-12-25T13:24:35.739Z,10.70
2018-12-25T13:25:45.200Z,10.05
2018-12-25T13:26:51.811Z,11.40
2018-12-25T13:27:58.480Z,11.65
2018-12-25T13:29:05.430Z,11.33
2018-12-25T13:30:12.329Z,10.48
2018-12-25T13:31:19.001Z,11.45
2018-12-25T13:32:25.653Z,11.28
2018-12-25T13:33:35.239Z,11.80
2018-12-25T13:34:41.699Z,12.43
2018-12-25T13:35:48.371Z,16.55
2018-12-25T13:36:55.157Z,12.50
2018-12-25T13:38:01.760Z,17.30
2018-12-25T13:39:09.328Z,12.03
2018-12-25T13:40:17.090Z,11.18
2018-12-25T13:41:23.857Z,11.95
2018-12-25T13:42:30.631Z,11.40
2018-12-25T13:43:37.507Z,12.30
2018-12-25T13:44:47.149Z,11.55
2018-12-25T13:45:53.662Z,11.45
2018-12-25T13:47:00.348Z,11.70
2018-12-25T13:48:07.022Z,12.43
2018-12-25T13:49:13.795Z,11.50
2018-12-25T13:50:20.360Z,11.97
2018-12-25T13:51:27.150Z,11.03
2018-12-25T13:52:33.887Z,11.50
2018-12-25T13:53:40.805Z,12.18
2018-12-25T13:54:47.574Z,12.75
2018-12-25T13:55:55.717Z,12.33
2018-12-25T13:57:02.249Z,12.70
2018-12-25T13:58:10.246Z,13.30
2018-12-25T13:59:16.723Z,11.63
2018-12-25T14:00:23.275Z,12.53
2018-12-25T14:01:32.050Z,13.03
2018-12-25T14:02:38.630Z,12.55
2018-12-25T14:03:45.181Z,12.18
2018-12-25T14:04:51.639Z,14.30
2018-12-25T14:05:58.366Z,15.78
2018-12-25T14:07:04.864Z,13.38
2018-12-25T14:08:11.434Z,13.70
2018-12-25T14:09:18.641Z,13.70
2018-12-25T14:10:27.546Z,12.93
2018-12-25T14:11:35.726Z,12.55
2018-12-25T14:12:43.809Z,12.95
2018-12-25T14:13:50.414Z,13.45
2018-12-25T14:14:57.232Z,12.37
2018-12-25T14:16:03.906Z,12.93
2018-12-25T14:17:10.770Z,13.32
2018-12-25T14:18:17.417Z,17.55
2018-12-25T14:19:25.344Z,13.85
2018-12-25T14:20:32.225Z,14.58
2018-12-25T14:21:39.088Z,14.45
2018-12-25T14:22:45.826Z,17.02
2018-12-25T14:23:52.561Z,15.88
2018-12-25T14:24:59.367Z,14.65
2018-12-25T14:26:06.038Z,16.70
2018-12-25T14:27:15.783Z,14.70
2018-12-25T14:28:22.748Z,14.60
2018-12-25T14:29:29.543Z,14.25
2018-12-25T14:30:36.376Z,13.38
2018-12-25T14:31:43.310Z,14.68
2018-12-25T14:32:49.921Z,15.60
2018-12-25T14:33:59.552Z,14.70
2018-12-25T14:35:06.192Z,14.00
2018-12-25T14:36:13.239Z,14.87
2018-12-25T14:37:19.866Z,14.35
2018-12-25T14:38:26.443Z,17.62